Marquisville, Iowa
Current Conditions -  °F | °C
As of 1:55 PM on Friday 24 Oct 2014 (Local Time) from KIKV Reporting Station
Haze Haze  
Wind Chill: 63°   Ceiling: 900
Heat Index: 63°   Visibility: 6mi
Dew Point: 61°   Wind: 12mph
Humidity: 94%   Direction: 180°S
Pressure: 29.91"   Gusts: NA
Location:  41.6547°N, 93.6196°W
Report Text: KIKV 241855Z AUTO 18010KT 6SM BR OVC009 17/16 A2991 RMK AO2
Loading
Personal Weather Stations






























Interactive Weather Map
Tropical Storm Tracking
New forecast layout! Learn more

10-Day Weather Forecast

Advertisements
Track Severe Weather on mobile